Little Chute, Wisconsin
Current Conditions -  °F | °C
As of 4:45 PM on Friday 24 Oct 2014 (Local Time) from KATW Reporting Station
Broken Clouds Broken Clouds  
Wind Chill: 54°   Ceiling: 7000
Heat Index: 54°   Visibility: 10mi
Dew Point: 50°   Wind: 8mph
Humidity: 88%   Direction: 180°S
Pressure: 29.92"   Gusts: NA
Location:  44.28°N, 88.32°W
Report Text: KATW 242145Z 18007KT 10SM SCT010 BKN070 12/10 A2992
Loading
Personal Weather Stations






























Interactive Weather Map
Tropical Storm Tracking
New forecast layout! Learn more

10-Day Weather Forecast

Advertisements
Track Severe Weather on mobile